createdAt,value
2022-10-30T00:02:48.190Z,21.35
2022-10-30T00:07:51.957Z,21.30
2022-10-30T00:12:55.591Z,21.26
2022-10-30T00:17:59.268Z,21.23
2022-10-30T00:23:02.921Z,21.17
2022-10-30T00:28:07.483Z,21.12
2022-10-30T00:33:11.198Z,21.12
2022-10-30T00:38:18.873Z,21.04
2022-10-30T00:43:27.468Z,21.04
2022-10-30T00:48:31.054Z,20.99
2022-10-30T00:53:35.261Z,20.97
2022-10-30T00:58:44.233Z,20.95
2022-10-30T01:03:50.618Z,20.92
2022-10-30T01:08:58.972Z,20.89
2022-10-30T01:14:14.762Z,20.87
2022-10-30T01:19:36.382Z,20.80
2022-10-30T01:24:45.708Z,20.68
2022-10-30T01:30:03.969Z,20.60
2022-10-30T01:35:19.655Z,20.53
2022-10-30T01:40:23.990Z,20.50
2022-10-30T01:45:58.680Z,20.52
2022-10-30T01:51:08.448Z,20.54
2022-10-30T01:56:22.814Z,20.63
2022-10-30T02:01:30.270Z,20.71
2022-10-30T02:06:33.768Z,20.78
2022-10-30T02:11:39.008Z,20.91
2022-10-30T02:16:49.766Z,21.00
2022-10-30T02:21:55.730Z,21.11
2022-10-30T02:26:59.504Z,21.21
2022-10-30T02:32:03.335Z,21.14
2022-10-30T02:37:06.671Z,21.05
2022-10-30T02:42:09.918Z,20.91
2022-10-30T02:47:13.472Z,20.79
2022-10-30T02:52:16.949Z,20.72
2022-10-30T02:57:20.556Z,20.65
2022-10-30T03:02:25.170Z,20.60
2022-10-30T03:07:28.996Z,20.59
2022-10-30T03:12:32.987Z,20.59
2022-10-30T03:17:36.583Z,20.60
2022-10-30T03:22:40.542Z,20.59
2022-10-30T03:27:44.105Z,20.56
2022-10-30T03:32:47.984Z,20.61
2022-10-30T03:37:51.541Z,20.66
2022-10-30T03:42:56.814Z,20.76
2022-10-30T03:48:04.920Z,20.82
2022-10-30T03:53:08.901Z,20.90
2022-10-30T03:58:12.620Z,20.97
2022-10-30T04:03:17.174Z,21.05
2022-10-30T04:08:21.038Z,21.08
2022-10-30T04:13:24.875Z,21.12
2022-10-30T04:18:29.427Z,21.15
2022-10-30T04:23:33.727Z,21.17
2022-10-30T04:28:37.349Z,21.21
2022-10-30T04:33:41.258Z,21.25
2022-10-30T04:38:44.855Z,21.27
2022-10-30T04:43:50.301Z,21.35
2022-10-30T04:48:55.243Z,21.41
2022-10-30T04:53:58.724Z,21.45
2022-10-30T04:59:04.880Z,21.52
2022-10-30T05:04:08.542Z,21.58
2022-10-30T05:09:12.327Z,21.65
2022-10-30T05:14:16.902Z,21.76
2022-10-30T05:19:22.495Z,21.89
2022-10-30T05:24:30.777Z,22.01
2022-10-30T05:29:34.048Z,22.22
2022-10-30T05:34:40.153Z,22.42
2022-10-30T05:39:43.591Z,22.74
2022-10-30T05:45:01.694Z,23.15
2022-10-30T05:50:09.138Z,23.57
2022-10-30T05:55:13.000Z,24.16
2022-10-30T06:00:36.263Z,24.55
2022-10-30T06:05:40.703Z,24.37
2022-10-30T06:10:47.595Z,24.19
2022-10-30T06:15:57.516Z,24.29
2022-10-30T06:21:05.912Z,24.44
2022-10-30T06:26:33.008Z,24.46
2022-10-30T06:31:42.243Z,24.74
2022-10-30T06:36:45.808Z,25.08
2022-10-30T06:41:49.312Z,25.21
2022-10-30T06:47:01.744Z,25.40
2022-10-30T06:52:05.179Z,25.32
2022-10-30T06:57:08.602Z,25.14
2022-10-30T07:02:38.438Z,25.02
2022-10-30T07:07:46.058Z,24.98
2022-10-30T07:12:54.503Z,24.98
2022-10-30T07:18:29.547Z,25.06
2022-10-30T07:23:35.665Z,25.11
2022-10-30T07:29:14.417Z,25.20
2022-10-30T07:34:24.219Z,25.28
2022-10-30T07:39:47.326Z,25.34
2022-10-30T07:44:59.980Z,25.40
2022-10-30T07:50:16.917Z,25.48
2022-10-30T07:55:20.596Z,25.51
2022-10-30T08:00:47.126Z,25.60
2022-10-30T08:05:59.679Z,25.67
2022-10-30T08:11:11.626Z,25.80
2022-10-30T08:16:15.252Z,25.91
2022-10-30T08:21:18.845Z,25.93
2022-10-30T08:26:38.718Z,26.01
2022-10-30T08:31:42.522Z,26.13
2022-10-30T08:37:01.259Z,26.24
2022-10-30T08:42:05.196Z,26.34
2022-10-30T08:47:15.027Z,26.46
2022-10-30T08:52:18.831Z,26.53
2022-10-30T08:57:27.916Z,26.59
2022-10-30T09:02:35.929Z,26.58
2022-10-30T09:08:08.347Z,26.62
2022-10-30T09:13:40.469Z,26.74
2022-10-30T09:18:43.990Z,26.73
2022-10-30T09:23:47.372Z,26.74
2022-10-30T09:29:08.938Z,26.87
2022-10-30T09:34:31.038Z,26.98
2022-10-30T09:39:40.067Z,27.04
2022-10-30T09:45:33.450Z,27.05
2022-10-30T09:50:46.811Z,26.89
2022-10-30T09:56:05.241Z,26.73
2022-10-30T10:01:16.274Z,26.57
2022-10-30T10:06:31.555Z,26.36
2022-10-30T10:12:01.873Z,26.17
2022-10-30T10:17:10.891Z,26.09
2022-10-30T10:22:20.351Z,26.08
2022-10-30T10:27:51.541Z,26.00
2022-10-30T10:33:18.507Z,25.96
2022-10-30T10:38:47.288Z,25.91
2022-10-30T10:44:30.145Z,25.85
2022-10-30T10:49:56.939Z,25.80
2022-10-30T10:55:24.892Z,25.75
2022-10-30T11:00:30.613Z,25.73
2022-10-30T11:05:56.831Z,25.69
2022-10-30T11:11:05.607Z,25.64
2022-10-30T11:16:34.870Z,25.56
2022-10-30T11:21:49.347Z,25.48
2022-10-30T11:26:54.665Z,25.39
2022-10-30T11:32:05.733Z,25.41
2022-10-30T11:37:41.281Z,25.34
2022-10-30T11:42:59.658Z,25.31
2022-10-30T11:48:19.018Z,25.29
2022-10-30T11:53:32.708Z,25.29
2022-10-30T11:58:43.106Z,25.29
2022-10-30T12:03:46.529Z,25.17
2022-10-30T12:09:02.397Z,25.12
2022-10-30T12:14:06.799Z,25.11
2022-10-30T12:19:15.151Z,25.06
2022-10-30T12:24:30.266Z,25.05
2022-10-30T12:30:08.946Z,25.03
2022-10-30T12:35:44.196Z,25.00
2022-10-30T12:41:04.640Z,24.99
2022-10-30T12:46:28.439Z,24.95
2022-10-30T12:52:19.457Z,24.90
2022-10-30T12:57:32.294Z,24.87
2022-10-30T13:03:23.450Z,24.89
2022-10-30T13:08:39.861Z,24.88
2022-10-30T13:13:47.730Z,24.81
2022-10-30T13:18:55.471Z,24.80
2022-10-30T13:24:27.633Z,24.75
2022-10-30T13:29:44.834Z,24.71
2022-10-30T13:35:04.662Z,24.63
2022-10-30T13:40:38.086Z,24.54
2022-10-30T13:45:57.864Z,24.46
2022-10-30T13:51:32.766Z,24.33
2022-10-30T13:56:37.109Z,24.23
2022-10-30T14:01:56.291Z,24.15
2022-10-30T14:07:38.463Z,24.02
2022-10-30T14:12:46.218Z,23.89
2022-10-30T14:18:14.306Z,23.77
2022-10-30T14:23:20.415Z,23.65
2022-10-30T14:28:24.014Z,23.52
2022-10-30T14:33:49.585Z,23.44
2022-10-30T14:39:01.028Z,23.34
2022-10-30T14:44:23.098Z,23.23
2022-10-30T14:49:47.459Z,23.13
2022-10-30T14:55:34.977Z,23.03
2022-10-30T15:00:43.129Z,22.96
2022-10-30T15:05:52.535Z,22.90
2022-10-30T15:11:19.159Z,22.84
2022-10-30T15:16:24.639Z,22.80
2022-10-30T15:21:31.528Z,22.77
2022-10-30T15:26:37.028Z,22.73
2022-10-30T15:31:40.549Z,22.69
2022-10-30T15:36:44.192Z,22.62
2022-10-30T15:41:51.523Z,22.59
2022-10-30T15:46:57.655Z,22.56
2022-10-30T15:52:14.442Z,22.55
2022-10-30T16:03:06.856Z,22.48
2022-10-30T16:08:24.922Z,22.47
2022-10-30T16:13:31.728Z,22.44
2022-10-30T16:18:36.335Z,22.43
2022-10-30T16:23:46.640Z,22.42
2022-10-30T16:28:50.209Z,22.41
2022-10-30T16:33:53.876Z,22.37
2022-10-30T16:38:57.932Z,22.37
2022-10-30T16:44:14.086Z,22.35
2022-10-30T16:49:27.606Z,22.34
2022-10-30T16:54:41.352Z,22.32
2022-10-30T16:59:49.315Z,22.28
2022-10-30T17:04:58.196Z,22.24
2022-10-30T17:10:01.915Z,22.20
2022-10-30T17:15:08.281Z,22.18
2022-10-30T17:20:29.989Z,22.18
2022-10-30T17:25:39.813Z,22.14
2022-10-30T17:30:44.190Z,22.11
2022-10-30T17:35:47.737Z,22.14
2022-10-30T17:40:51.258Z,22.19
2022-10-30T17:45:54.825Z,22.20
2022-10-30T17:50:58.650Z,22.23
2022-10-30T17:56:11.470Z,22.27
2022-10-30T18:01:18.812Z,22.31
2022-10-30T18:06:25.807Z,22.34
2022-10-30T18:11:29.127Z,22.36
2022-10-30T18:16:32.760Z,22.40
2022-10-30T18:21:35.993Z,22.38
2022-10-30T18:26:42.307Z,22.43
2022-10-30T18:31:45.852Z,22.42
2022-10-30T18:36:49.981Z,22.40
2022-10-30T18:41:53.442Z,22.38
2022-10-30T18:47:02.559Z,22.38
2022-10-30T18:52:06.506Z,22.32
2022-10-30T18:57:09.663Z,22.31
2022-10-30T19:02:21.386Z,22.32
2022-10-30T19:07:24.596Z,22.29
2022-10-30T19:12:27.940Z,22.29
2022-10-30T19:17:31.274Z,22.21
2022-10-30T19:22:34.863Z,22.16
2022-10-30T19:27:38.321Z,22.13
2022-10-30T19:32:41.545Z,22.10
2022-10-30T19:37:44.908Z,22.05
2022-10-30T19:42:48.938Z,22.02
2022-10-30T19:47:54.512Z,22.00
2022-10-30T19:53:00.403Z,22.00
2022-10-30T19:58:05.751Z,22.05
2022-10-30T20:03:11.761Z,22.13
2022-10-30T20:08:16.778Z,22.17
2022-10-30T20:13:20.732Z,22.16
2022-10-30T20:18:29.321Z,22.14
2022-10-30T20:23:32.728Z,22.17
2022-10-30T20:28:39.138Z,22.16
2022-10-30T20:33:42.455Z,22.15
2022-10-30T20:38:46.030Z,22.11
2022-10-30T20:43:49.729Z,22.14
2022-10-30T20:48:53.167Z,22.17
2022-10-30T20:53:56.774Z,22.21
2022-10-30T20:59:00.320Z,22.21
2022-10-30T21:04:04.094Z,22.15
2022-10-30T21:09:07.743Z,22.17
2022-10-30T21:14:10.939Z,22.16
2022-10-30T21:19:14.305Z,22.20
2022-10-30T21:24:18.074Z,22.17
2022-10-30T21:29:21.523Z,22.14
2022-10-30T21:34:24.969Z,22.17
2022-10-30T21:39:29.342Z,22.20
2022-10-30T21:44:32.874Z,22.23
2022-10-30T21:49:36.370Z,22.24
2022-10-30T21:54:39.807Z,22.25
2022-10-30T21:59:43.181Z,22.23
2022-10-30T22:04:51.942Z,22.22
2022-10-30T22:09:55.331Z,22.22
2022-10-30T22:14:59.857Z,22.20
2022-10-30T22:20:03.759Z,22.18
2022-10-30T22:25:07.265Z,22.18
2022-10-30T22:30:11.307Z,22.20
2022-10-30T22:35:15.146Z,22.18
2022-10-30T22:40:18.593Z,22.13
2022-10-30T22:45:22.149Z,22.03
2022-10-30T22:50:25.786Z,22.00
2022-10-30T22:55:29.036Z,21.95
2022-10-30T23:00:32.203Z,21.89
2022-10-30T23:05:36.414Z,21.81
2022-10-30T23:10:39.717Z,21.75
2022-10-30T23:15:43.145Z,21.73
2022-10-30T23:20:49.334Z,21.70
2022-10-30T23:25:53.335Z,21.65
2022-10-30T23:30:56.859Z,21.61
2022-10-30T23:36:06.664Z,21.55
2022-10-30T23:41:10.733Z,21.52
2022-10-30T23:46:13.873Z,21.52
2022-10-30T23:51:18.139Z,21.49
2022-10-30T23:56:23.373Z,21.44
